METAR AND TAF INFORMATION
METAR FOR EDDP
ADDS - METARS form results

(0938 UTC 24 May 2018)
Data provider http://aviationweather.gov/adds/metars/
 
METAR text: EDDP 240920Z 08013KT CAVOK 20/13 Q1021 NOSIG
Conditions at: EDDP (LEIPZIG/SCHKEUDI, DE) observed 0920 UTC 24 May 2018
Temperature: 20.0°C (68°F)
Dewpoint: 13.0°C (55°F) [RH = 64%]
Pressure (altimeter): 30.15 inches Hg (1021.0 mb)
Winds: from the E (80 degrees) at 15 MPH (13 knots; 6.8 m/s)
Visibility: 6 or more miles (10+ km)
Ceiling: ceiling and visibility are OK
Clouds: unknown
Weather: no significant weather observed at this time

METAR text: EDDP 240850Z 07012KT CAVOK 20/13 Q1021 NOSIG
Conditions at: EDDP (LEIPZIG/SCHKEUDI, DE) observed 0850 UTC 24 May 2018
Temperature: 20.0°C (68°F)
Dewpoint: 13.0°C (55°F) [RH = 64%]
Pressure (altimeter): 30.15 inches Hg (1021.0 mb)
Winds: from the ENE (70 degrees) at 14 MPH (12 knots; 6.2 m/s)
Visibility: 6 or more miles (10+ km)
Ceiling: ceiling and visibility are OK
Clouds: unknown
Weather: no significant weather observed at this time

Forecast for: EDDP (LEIPZIG/SCHKEUDI, DE)
Text: TAF EDDP 240500Z 2406/2506 06012KT CAVOK
Forecast period: 0600 to 1500 UTC 24 May 2018
Forecast type: FROM: standard forecast or significant change
Winds: from the ENE (60 degrees) at 14 MPH (12 knots; 6.2 m/s)
Visibility: 6 or more miles (10+ km)
Clouds: not forecast
Weather: NSW  (no significant weather)
Forecast for: EDDP (LEIPZIG/SCHKEUDI, DE)
Text: TAF EDDP 240500Z 2406/2506 06012KT CAVOK
Forecast period: 0600 to 1500 UTC 24 May 2018
Forecast type: FROM: standard forecast or significant change
Winds: from the ENE (60 degrees) at 14 MPH (12 knots; 6.2 m/s)
Visibility: 6 or more miles (10+ km)
Clouds: not forecast
Weather: NSW  (no significant weather)
Forecast for: EDDP (LEIPZIG/SCHKEUDI, DE)
Text: TAF EDDP 240500Z 2406/2506 06012KT CAVOK
Forecast period: 0900 to 1500 UTC 24 May 2018
Forecast type: TEMPORARY: The following changes expected for less than half the time period
Winds: from the E (80 degrees) at 17 MPH (15 knots; 7.8 m/s)
gusting to 29 MPH (25 knots; 13.0 m/s)
Weather: no significant weather forecast for this period
Forecast for: EDDP (LEIPZIG/SCHKEUDI, DE)
Text: TAF EDDP 240500Z 2406/2506 06012KT CAVOK
Forecast period: 0900 to 1500 UTC 24 May 2018
Forecast type: TEMPORARY: The following changes expected for less than half the time period
Winds: from the E (80 degrees) at 17 MPH (15 knots; 7.8 m/s)
gusting to 29 MPH (25 knots; 13.0 m/s)
Weather: no significant weather forecast for this period
Forecast for: EDDP (LEIPZIG/SCHKEUDI, DE)
Text: TAF EDDP 240500Z 2406/2506 06012KT CAVOK
Forecast period: 1500 UTC 24 May 2018 to 0600 UTC 25 May 2018
Forecast type: BECOMING: Conditions expected to become as follows by 1700 UTC 24 May 2018
Winds: from the ENE (70 degrees) at 8 MPH (7 knots; 3.6 m/s)
Visibility: 6 or more miles (10+ km)
Weather: NSW  (no significant weather)
Forecast for: EDDP (LEIPZIG/SCHKEUDI, DE)
Text: TAF EDDP 240500Z 2406/2506 06012KT CAVOK
Forecast period: 1500 UTC 24 May 2018 to 0600 UTC 25 May 2018
Forecast type: BECOMING: Conditions expected to become as follows by 1700 UTC 24 May 2018
Winds: from the ENE (70 degrees) at 8 MPH (7 knots; 3.6 m/s)
Visibility: 6 or more miles (10+ km)
Weather: NSW  (no significant weather)

 AIRPORT MAP

 RUNWAY INFORMATION
Runway 08L Runway length 11811 ft Runway width 148 ft
Runway elevation 418 ft Runway displaced threshold 0 ft Runway heading 86
Runway 26R Runway length 11811 ft Runway width 148 ft
Runway elevation 448 ft Runway displaced threshold 0 ft Runway heading 266
Runway 08R Runway length 11811 ft Runway width 198 ft
Runway elevation 0 ft Runway displaced threshold 0 ft Runway heading 86
Runway 26L Runway length 11811 ft Runway width 198 ft
Runway elevation 0 ft Runway displaced threshold 0 ft Runway heading 266

 AIRPORT FREQUENCIES
Type APP Name MUNCHEN RA Frequency 124.175 MHZ
Type ATIS Name ATIS Frequency 123.95 MHZ
Type GND Name GND Frequency 121.8 MHZ
Type INFO Name MUNCHEN IN Frequency 125.8 MHZ
Type TWR Name TWR Frequency 121.1 MHZ

 AIRPORT NEAR NAVIGATION AIDS
Type DME Name Leipzig South Frequency 112150 KHZ
Type VOR-DME Name Leipzig Frequency 115850 KHZ
Type DME Name Leipzig North Frequency 113500 KHZ
Type NDB Name Leipzig Frequency 357 KHZ
Type NDB Name Leipzig Frequency 434 KHZ
Type NDB Name Leipzig Frequency 340 KHZ



Powered by Virtual Airlines Manager [v2.6.2]